Hicksville, OH

12:31 AM EDT on May 27, 2017 (GMT -0400)
DeLila | | Change Station
Active Advisory: Flood Warning

Elev 781 ft 41.23 °N, 84.87 °W | Updated 4 seconds ago

Rain
Rain
60.8 °F
Feels Like 60.8 °F
N
3.6
Wind Variable Wind from NNE
Gusts 4.9 mph

Today
High -- | Low -- °F
--% Chance of Precip.
Yesterday
High -- | Low -- °F
Precip. -- in
Pressure 29.87 in
Visibility 7.0 miles
Clouds Scattered Clouds 1600 ft
Mostly Cloudy 4500 ft
Overcast 6000 ft
Dew Point 60 °F
Humidity 97%
Rainfall 0.25 in
Snow Depth Not available.
6:10 AM 9:02 PM
Waxing Crescent, 3% visible
METAR KGWB 270415Z AUTO 08009KT 7SM RA SCT016 BKN045 OVC060 15/14 A2987 RMK AO2 P0002
Pressure 29.87 in
Visibility 7.0 miles
Clouds Scattered Clouds 1600 ft
Mostly Cloudy 4500 ft
Overcast 6000 ft
Dew Point 60 °F
Humidity 97%
Rainfall 0.25 in
Snow Depth Not available.
6:10 AM 9:02 PM
Waxing Crescent, 3% visible
METAR KGWB 270415Z AUTO 08009KT 7SM RA SCT016 BKN045 OVC060 15/14 A2987 RMK AO2 P0002

Get Your Daily Forecast Email!

Thanks for signing up!

Be on the lookout for a verification email in your inbox.

You'll start receiving severe weather alerts in your inbox..

×

10-Day Weather Forecast

Almanac

Astronomy

May. 27, 2017 Rise Set
Actual Time
Civil Twilight
Nautical Twilight
Astronomical Twilight
Moon
Length of Visible Light
Length of Day
Tomorrow will be .
, % of the Moon is Illuminated

Today's Extremes

State Highs State Lows

Community

WunderPhotos

Category 6

Welcome to Category 6. This is the collective home for Weather Underground's featured writeups by Dr. Jeff Masters (right), Bob Henson (left), Chris Burt, and other regular contributors.

Nearby

Air Quality

  Air Quality AQ Index Pollutant
Not available.

Snow Depth

Station Depth Elevation

Earthquake Activity

City Distance Mag. Time & Date
Minimum magnitude displayed is 2.5.

Coastal Water Temperatures

Place Temperature

Stations

Nearby Weather Stations

Station Location Temp. Windchill Dew Point Humidity Wind Precip. Elev Updated Type
                   

Watches & Warnings

Flood Warning
Issued: 9:45 PM EDT May. 26, 2017 – National Weather Service

The National Weather Service in northern Indiana has issued a

* Flood Warning for
the Maumee River near Defiance
* from late tonight to late Saturday night.
* At 9 PM Friday the stage was 9.8 feet and rising.
* Minor flooding is forecast.
* Flood stage is 10.0 feet.
* Forecast... the river is expected to rise to near flood stage around
2 am Saturday may 27.
* At 10.0 feet... flooding occurs in Kingsbury and Pontiac Parks.


Lat... Lon 4121 8465 4127 8467 4131 8431 4128 8431